Time;durP1;ratioP1;P1;durP2;ratioP2;P2;SDS_P1;SDS_P2;PMS_P1;PMS_P2;Temp;Humidity;BMP_temperature;BMP_pressure;BME280_temperature;BME280_humidity;BME280_pressure;Samples;Min_cycle;Max_cycle;Signal;HPM_P1;HPM_P2
2022/12/26 00:01:18;;;;;;;36.38;15.25;;;;;;;;;;5034751;28;20505;-65
2022/12/26 00:03:43;;;;;;;40.65;16.15;;;;;;;;;;5039820;28;20051;-65
2022/12/26 00:06:13;;;;;;;43.53;15.00;;;;;;;;;;5044441;28;20041;-65
2022/12/26 00:08:39;;;;;;;29.40;13.98;;;;;;;;;;5053858;28;20033;-66
2022/12/26 00:11:05;;;;;;;35.40;14.73;;;;;;;;;;5050221;28;20263;-65
2022/12/26 00:13:31;;;;;;;27.90;13.50;;;;;;;;;;5057741;28;20414;-65
2022/12/26 00:15:57;;;;;;;26.08;13.35;;;;;;;;;;5067647;28;20086;-66
2022/12/26 00:18:23;;;;;;;37.55;14.70;;;;;;;;;;5045163;28;20127;-65
2022/12/26 00:20:49;;;;;;;33.65;13.13;;;;;;;;;;5053606;28;20040;-65
2022/12/26 00:23:15;;;;;;;40.70;14.88;;;;;;;;;;5055536;28;20055;-65
2022/12/26 00:25:41;;;;;;;32.72;13.98;;;;;;;;;;5060887;28;20068;-65
2022/12/26 00:28:07;;;;;;;31.60;13.55;;;;;;;;;;5061495;28;20482;-65
2022/12/26 00:30:33;;;;;;;28.52;13.43;;;;;;;;;;5052642;28;20123;-65
2022/12/26 00:32:59;;;;;;;31.25;13.15;;;;;;;;;;5053536;28;20045;-65
2022/12/26 00:35:25;;;;;;;29.40;12.32;;;;;;;;;;5054036;28;20090;-65
2022/12/26 00:37:51;;;;;;;35.85;13.43;;;;;;;;;;5044282;28;20479;-65
2022/12/26 00:40:17;;;;;;;28.45;12.55;;;;;;;;;;5052947;28;20036;-65
2022/12/26 00:42:43;;;;;;;28.90;12.20;;;;;;;;;;5056284;28;20045;-65
2022/12/26 00:45:09;;;;;;;25.35;11.38;;;;;;;;;;5053351;28;20406;-65
2022/12/26 00:47:35;;;;;;;26.33;11.55;;;;;;;;;;5044376;28;20041;-65
2022/12/26 00:50:01;;;;;;;24.60;10.85;;;;;;;;;;5052737;28;20098;-65
2022/12/26 00:52:27;;;;;;;24.48;10.68;;;;;;;;;;5051176;28;20045;-65
2022/12/26 00:54:53;;;;;;;22.60;10.85;;;;;;;;;;5060580;28;20048;-65
2022/12/26 00:57:19;;;;;;;23.67;10.55;;;;;;;;;;5042205;28;20069;-65
2022/12/26 00:59:45;;;;;;;26.13;10.63;;;;;;;;;;5049552;28;20037;-66
2022/12/26 01:04:56;;;;;;;33.15;11.90;;;;;;;;;;5050328;28;20502;-66
2022/12/26 01:07:22;;;;;;;34.08;12.63;;;;;;;;;;5052096;28;20069;-66
2022/12/26 01:09:48;;;;;;;29.20;11.32;;;;;;;;;;5061508;28;20074;-66
2022/12/26 01:12:14;;;;;;;35.22;12.38;;;;;;;;;;5053494;28;20037;-66
2022/12/26 01:14:40;;;;;;;34.60;12.45;;;;;;;;;;5052356;28;20110;-65
2022/12/26 01:17:06;;;;;;;32.85;12.30;;;;;;;;;;5048968;28;20033;-65
2022/12/26 01:19:32;;;;;;;32.88;12.13;;;;;;;;;;5047682;28;20041;-65
2022/12/26 01:21:58;;;;;;;39.95;14.07;;;;;;;;;;5052221;28;20040;-65
2022/12/26 01:24:24;;;;;;;39.78;13.80;;;;;;;;;;5049506;28;20513;-65
2022/12/26 01:26:50;;;;;;;33.90;13.38;;;;;;;;;;5053340;28;20155;-65
2022/12/26 01:29:16;;;;;;;39.53;12.50;;;;;;;;;;5052366;28;20053;-65
2022/12/26 01:31:42;;;;;;;36.67;12.60;;;;;;;;;;5051926;28;20076;-65
2022/12/26 01:34:08;;;;;;;29.15;12.23;;;;;;;;;;5041853;28;20057;-65
2022/12/26 01:36:34;;;;;;;29.63;12.02;;;;;;;;;;5072287;22;20052;-66
2022/12/26 01:39:00;;;;;;;33.33;12.85;;;;;;;;;;5025209;28;20033;-66
2022/12/26 01:41:26;;;;;;;29.02;11.90;;;;;;;;;;5032097;28;20038;-67
2022/12/26 01:44:00;;;;;;;36.15;13.02;;;;;;;;;;5031840;28;20045;-69
2022/12/26 01:46:26;;;;;;;35.53;12.48;;;;;;;;;;5031937;28;20129;-67
2022/12/26 01:48:52;;;;;;;27.27;10.77;;;;;;;;;;5030932;28;20483;-68
2022/12/26 01:51:21;;;;;;;26.27;10.70;;;;;;;;;;5031202;28;20057;-68
2022/12/26 01:53:49;;;;;;;34.25;11.50;;;;;;;;;;5030330;28;20037;-68
2022/12/26 01:56:17;;;;;;;34.22;11.88;;;;;;;;;;5032097;28;20519;-68
2022/12/26 01:58:46;;;;;;;33.35;12.05;;;;;;;;;;5030069;28;20046;-68
2022/12/26 02:01:12;;;;;;;29.98;11.43;;;;;;;;;;5031160;28;20033;-68
2022/12/26 02:06:25;;;;;;;29.40;11.65;;;;;;;;;;5032204;28;20057;-68
2022/12/26 02:08:51;;;;;;;29.52;12.15;;;;;;;;;;5029447;28;20041;-67
2022/12/26 02:11:40;;;;;;;30.15;14.10;;;;;;;;;;5031639;28;20120;-67
2022/12/26 02:14:06;;;;;;;30.90;13.82;;;;;;;;;;5016047;28;20495;-67
2022/12/26 02:16:33;;;;;;;35.28;15.27;;;;;;;;;;5030996;28;20509;-67
2022/12/26 02:18:59;;;;;;;34.35;15.23;;;;;;;;;;5028747;28;20040;-68
2022/12/26 02:21:40;;;;;;;33.72;15.90;;;;;;;;;;5030193;28;20392;-67
2022/12/26 02:24:06;;;;;;;37.45;16.27;;;;;;;;;;5002849;28;20083;-68
2022/12/26 02:26:41;;;;;;;38.75;16.75;;;;;;;;;;5030701;28;20142;-69
2022/12/26 02:29:29;;;;;;;42.05;17.13;;;;;;;;;;5030679;28;20037;-68
2022/12/26 02:31:55;;;;;;;41.95;17.42;;;;;;;;;;5034012;28;20041;-68
2022/12/26 02:34:30;;;;;;;42.83;18.08;;;;;;;;;;5035589;28;20053;-68
2022/12/26 02:36:56;;;;;;;41.20;18.05;;;;;;;;;;5011768;28;20069;-67
2022/12/26 02:39:41;;;;;;;46.42;19.88;;;;;;;;;;5030438;28;20072;-67
2022/12/26 02:42:25;;;;;;;40.72;18.92;;;;;;;;;;5020527;28;20033;-67
2022/12/26 02:48:12;;;;;;;41.35;18.40;;;;;;;;;;5029265;28;20089;-66
2022/12/26 03:13:12;;;;;;;49.92;20.58;;;;;;;;;;5029252;28;20099;-66
2022/12/26 03:18:36;;;;;;;50.10;20.40;;;;;;;;;;5029099;28;20126;-66
2022/12/26 03:21:03;;;;;;;52.10;21.13;;;;;;;;;;5027907;28;20041;-66
2022/12/26 03:23:30;;;;;;;51.50;21.60;;;;;;;;;;5029045;28;20516;-67
2022/12/26 03:28:47;;;;;;;51.15;20.77;;;;;;;;;;5023663;28;20094;-66
2022/12/26 03:31:13;;;;;;;48.22;20.25;;;;;;;;;;5022348;28;20041;-67
2022/12/26 03:36:25;;;;;;;59.92;22.30;;;;;;;;;;5030124;28;20095;-67
2022/12/26 03:38:57;;;;;;;50.88;21.70;;;;;;;;;;5012181;28;20037;-67
2022/12/26 04:46:33;;;;;;;39.83;17.23;;;;;;;;;;5032559;28;20244;-66
2022/12/26 04:51:44;;;;;;;38.75;17.77;;;;;;;;;;5033914;28;20608;-67
2022/12/26 04:54:10;;;;;;;38.45;18.27;;;;;;;;;;5032182;28;20037;-67
2022/12/26 04:56:36;;;;;;;39.78;17.85;;;;;;;;;;5031952;28;20088;-67
2022/12/26 04:59:02;;;;;;;41.80;19.35;;;;;;;;;;5030940;28;20095;-67
2022/12/26 05:09:52;;;;;;;45.00;19.65;;;;;;;;;;5031500;28;20479;-67
2022/12/26 05:12:18;;;;;;;40.70;18.20;;;;;;;;;;5031033;28;20041;-67
2022/12/26 05:14:44;;;;;;;43.88;18.10;;;;;;;;;;5030556;28;20176;-67
2022/12/26 05:30:59;;;;;;;44.63;19.83;;;;;;;;;;5033148;28;20462;-66
2022/12/26 05:36:10;;;;;;;36.42;18.38;;;;;;;;;;5032105;28;20092;-66
2022/12/26 05:38:36;;;;;;;40.00;18.10;;;;;;;;;;5029182;28;20037;-66
2022/12/26 05:41:02;;;;;;;38.25;18.80;;;;;;;;;;5010573;28;20518;-66
2022/12/26 05:43:28;;;;;;;35.22;16.77;;;;;;;;;;5026490;28;20037;-66
2022/12/26 05:45:54;;;;;;;28.58;15.27;;;;;;;;;;5031219;28;20052;-66
2022/12/26 05:48:21;;;;;;;38.05;19.65;;;;;;;;;;5030462;28;20100;-66
2022/12/26 05:50:47;;;;;;;40.38;19.80;;;;;;;;;;5030897;28;20541;-66
2022/12/26 05:53:13;;;;;;;33.15;17.52;;;;;;;;;;5030229;28;20069;-66
2022/12/26 05:55:39;;;;;;;35.60;17.48;;;;;;;;;;5030834;28;20041;-66
2022/12/26 05:58:05;;;;;;;32.08;16.77;;;;;;;;;;5031964;28;20518;-66
2022/12/26 06:00:31;;;;;;;35.38;18.70;;;;;;;;;;5032444;28;20033;-66
2022/12/26 06:03:01;;;;;;;35.08;19.05;;;;;;;;;;5031360;28;20699;-67
2022/12/26 06:05:27;;;;;;;36.15;18.25;;;;;;;;;;5029337;28;20088;-66
2022/12/26 06:07:53;;;;;;;36.90;18.40;;;;;;;;;;5030450;28;20524;-66
2022/12/26 06:10:19;;;;;;;35.15;18.00;;;;;;;;;;5031601;28;20041;-66
2022/12/26 06:12:45;;;;;;;35.03;17.90;;;;;;;;;;5031447;28;20395;-66
2022/12/26 06:15:11;;;;;;;36.10;18.58;;;;;;;;;;5031770;28;20036;-66
2022/12/26 06:17:38;;;;;;;38.03;18.45;;;;;;;;;;5030681;28;20112;-66
2022/12/26 06:20:04;;;;;;;35.17;17.58;;;;;;;;;;5028623;28;20034;-66
2022/12/26 06:22:30;;;;;;;34.50;17.48;;;;;;;;;;5028881;28;20037;-66
2022/12/26 06:24:56;;;;;;;35.10;18.05;;;;;;;;;;5012675;28;20044;-67
2022/12/26 06:27:22;;;;;;;31.98;18.55;;;;;;;;;;5031381;28;20045;-66
2022/12/26 06:29:48;;;;;;;30.58;17.02;;;;;;;;;;5030480;28;20044;-66
2022/12/26 06:32:14;;;;;;;32.75;17.48;;;;;;;;;;5030024;28;20042;-66
2022/12/26 06:34:40;;;;;;;32.58;17.00;;;;;;;;;;5030235;28;20037;-66
2022/12/26 06:37:06;;;;;;;33.35;16.95;;;;;;;;;;5031575;28;20407;-67
2022/12/26 06:39:32;;;;;;;33.35;16.90;;;;;;;;;;5030627;28;20037;-67
2022/12/26 06:41:58;;;;;;;30.92;15.02;;;;;;;;;;5030157;28;20039;-67
2022/12/26 06:44:24;;;;;;;30.27;16.38;;;;;;;;;;5030506;28;20044;-67
2022/12/26 06:46:50;;;;;;;31.90;16.00;;;;;;;;;;5012165;28;20048;-66
2022/12/26 06:49:16;;;;;;;33.50;17.13;;;;;;;;;;5029122;28;20733;-67
2022/12/26 06:51:43;;;;;;;32.42;17.05;;;;;;;;;;5031564;28;20095;-66
2022/12/26 06:54:10;;;;;;;32.05;17.25;;;;;;;;;;5029334;28;20119;-67
2022/12/26 06:56:36;;;;;;;32.75;16.65;;;;;;;;;;5030765;28;20037;-67
2022/12/26 06:59:03;;;;;;;30.92;17.40;;;;;;;;;;5030484;28;20041;-67
2022/12/26 07:01:30;;;;;;;35.25;17.77;;;;;;;;;;5028987;28;20041;-66
2022/12/26 07:03:56;;;;;;;33.90;18.48;;;;;;;;;;5030267;28;20041;-66
2022/12/26 07:06:48;;;;;;;33.88;17.35;;;;;;;;;;5031072;28;20038;-67
2022/12/26 07:09:16;;;;;;;33.70;18.05;;;;;;;;;;5001360;28;20102;-67
2022/12/26 07:11:43;;;;;;;35.08;18.25;;;;;;;;;;5029875;28;20504;-67
2022/12/26 07:14:09;;;;;;;33.10;18.20;;;;;;;;;;5030182;28;20037;-67
2022/12/26 07:16:37;;;;;;;33.72;17.70;;;;;;;;;;5012072;28;20042;-66
2022/12/26 07:19:03;;;;;;;31.83;17.10;;;;;;;;;;5028803;28;20037;-67
2022/12/26 07:21:29;;;;;;;31.63;16.73;;;;;;;;;;5029992;28;20038;-67
2022/12/26 07:23:55;;;;;;;35.80;17.27;;;;;;;;;;5030828;28;20048;-67
2022/12/26 07:26:22;;;;;;;35.67;19.33;;;;;;;;;;5030149;28;20491;-66
2022/12/26 07:28:48;;;;;;;33.83;19.63;;;;;;;;;;5028926;28;20044;-69
2022/12/26 07:31:18;;;;;;;33.97;18.23;;;;;;;;;;5014097;28;20042;-69
2022/12/26 07:33:48;;;;;;;34.97;18.90;;;;;;;;;;5003439;28;20053;-69
2022/12/26 07:36:14;;;;;;;33.92;18.58;;;;;;;;;;5018968;28;20038;-69
2022/12/26 07:38:40;;;;;;;36.17;19.00;;;;;;;;;;5039634;22;20048;-63
2022/12/26 07:43:51;;;;;;;33.63;18.15;;;;;;;;;;5029136;28;20426;-63
2022/12/26 07:46:17;;;;;;;36.75;18.75;;;;;;;;;;5013789;28;20034;-63
2022/12/26 07:48:43;;;;;;;35.70;18.40;;;;;;;;;;5028128;28;20593;-63
2022/12/26 07:51:09;;;;;;;36.72;18.95;;;;;;;;;;5021508;28;20041;-64
2022/12/26 07:53:35;;;;;;;35.00;18.30;;;;;;;;;;5022629;28;20042;-63
2022/12/26 07:56:01;;;;;;;35.13;18.05;;;;;;;;;;5024333;28;20084;-63
2022/12/26 07:58:27;;;;;;;35.88;19.08;;;;;;;;;;5023254;28;20048;-62
2022/12/26 08:00:53;;;;;;;34.00;18.23;;;;;;;;;;5026451;28;20079;-63
2022/12/26 08:03:19;;;;;;;35.15;17.88;;;;;;;;;;5026744;28;20076;-63
2022/12/26 08:05:46;;;;;;;31.67;17.73;;;;;;;;;;5025353;28;20084;-63
2022/12/26 08:08:12;;;;;;;33.90;17.45;;;;;;;;;;5019546;28;20503;-63
2022/12/26 08:10:38;;;;;;;30.30;16.45;;;;;;;;;;5023954;28;20069;-63
2022/12/26 08:13:04;;;;;;;31.35;17.30;;;;;;;;;;5024256;28;20068;-63
2022/12/26 08:15:30;;;;;;;26.33;13.98;;;;;;;;;;5009390;28;20037;-62
2022/12/26 08:17:56;;;;;;;33.95;17.17;;;;;;;;;;5024251;28;20041;-62
2022/12/26 08:20:22;;;;;;;25.02;14.43;;;;;;;;;;5013963;28;20128;-63
2022/12/26 08:22:48;;;;;;;28.10;13.68;;;;;;;;;;5003748;28;20068;-63
2022/12/26 08:25:14;;;;;;;23.08;14.05;;;;;;;;;;5022100;28;20386;-63
2022/12/26 08:27:40;;;;;;;22.13;13.20;;;;;;;;;;5031814;28;20038;-63
2022/12/26 08:30:06;;;;;;;24.45;13.80;;;;;;;;;;5022819;28;20044;-63
2022/12/26 08:32:32;;;;;;;19.77;11.57;;;;;;;;;;5021014;28;20069;-63
2022/12/26 08:34:58;;;;;;;20.20;11.50;;;;;;;;;;5028048;28;20073;-63
2022/12/26 08:37:24;;;;;;;21.00;12.68;;;;;;;;;;5003608;28;20069;-63
2022/12/26 08:39:52;;;;;;;18.17;11.43;;;;;;;;;;5021963;28;20038;-62
2022/12/26 08:42:18;;;;;;;21.25;11.77;;;;;;;;;;5026093;28;20080;-63
2022/12/26 08:44:45;;;;;;;21.65;11.40;;;;;;;;;;5016492;28;20116;-63
2022/12/26 08:47:11;;;;;;;17.15;10.73;;;;;;;;;;5024988;28;20558;-64
2022/12/26 08:49:37;;;;;;;18.10;10.55;;;;;;;;;;5025896;28;20388;-63
2022/12/26 08:52:03;;;;;;;16.25;9.52;;;;;;;;;;5022599;28;20048;-63
2022/12/26 08:54:29;;;;;;;16.08;9.63;;;;;;;;;;5032599;28;20060;-63
2022/12/26 08:56:55;;;;;;;15.95;9.25;;;;;;;;;;5030457;28;20037;-63
2022/12/26 08:59:21;;;;;;;15.27;9.80;;;;;;;;;;5027224;28;20092;-63
2022/12/26 09:01:47;;;;;;;14.13;7.90;;;;;;;;;;5024306;28;20033;-63
2022/12/26 09:04:13;;;;;;;12.00;7.95;;;;;;;;;;5019356;28;20046;-63
2022/12/26 09:06:39;;;;;;;15.05;8.13;;;;;;;;;;5027719;28;20136;-63
2022/12/26 09:09:06;;;;;;;14.85;7.93;;;;;;;;;;5018770;28;20100;-63
2022/12/26 09:11:33;;;;;;;12.68;5.50;;;;;;;;;;5022963;28;20037;-63
2022/12/26 09:14:00;;;;;;;15.75;6.43;;;;;;;;;;5023931;28;20045;-63
2022/12/26 09:16:27;;;;;;;11.68;6.70;;;;;;;;;;5023691;28;20077;-63
2022/12/26 09:18:55;;;;;;;13.52;5.82;;;;;;;;;;5026571;28;20041;-63
2022/12/26 09:21:21;;;;;;;11.15;6.03;;;;;;;;;;5001699;28;20076;-63
2022/12/26 09:23:46;;;;;;;9.25;5.63;;;;;;;;;;5031066;28;20077;-63
2022/12/26 09:26:15;;;;;;;12.77;5.90;;;;;;;;;;5019563;28;20537;-63
2022/12/26 09:28:41;;;;;;;11.68;6.00;;;;;;;;;;5020922;28;20041;-63
2022/12/26 09:31:10;;;;;;;10.68;5.55;;;;;;;;;;5004691;28;20037;-63
2022/12/26 09:33:37;;;;;;;11.55;6.10;;;;;;;;;;5007139;28;20045;-63
2022/12/26 09:36:07;;;;;;;15.82;6.40;;;;;;;;;;5024398;28;20029;-63
2022/12/26 09:38:33;;;;;;;8.07;5.13;;;;;;;;;;5024928;28;20034;-63
2022/12/26 09:41:11;;;;;;;11.10;5.63;;;;;;;;;;4997532;28;20049;-63
2022/12/26 09:43:45;;;;;;;9.82;5.45;;;;;;;;;;5002447;28;20123;-64
2022/12/26 09:46:23;;;;;;;9.55;5.40;;;;;;;;;;5023314;28;20128;-63
2022/12/26 09:48:55;;;;;;;6.20;4.43;;;;;;;;;;5020678;28;20512;-63
2022/12/26 09:51:21;;;;;;;9.20;4.85;;;;;;;;;;5029674;28;20128;-63
2022/12/26 09:53:47;;;;;;;6.40;3.80;;;;;;;;;;5028725;28;20048;-63
2022/12/26 09:56:15;;;;;;;7.95;4.38;;;;;;;;;;5030077;28;20636;-63
2022/12/26 09:58:43;;;;;;;6.70;3.78;;;;;;;;;;5009070;28;20153;-63
2022/12/26 10:01:12;;;;;;;7.00;4.03;;;;;;;;;;5022711;28;20423;-63
2022/12/26 10:03:43;;;;;;;7.70;4.20;;;;;;;;;;5020764;28;20403;-63
2022/12/26 10:06:09;;;;;;;8.82;3.78;;;;;;;;;;5029433;28;20033;-63
2022/12/26 10:08:47;;;;;;;3.97;3.08;;;;;;;;;;5021623;28;20052;-63
2022/12/26 10:11:31;;;;;;;5.32;3.58;;;;;;;;;;5025420;28;20045;-63
2022/12/26 10:14:09;;;;;;;7.90;3.60;;;;;;;;;;5027088;28;20068;-63
2022/12/26 10:16:38;;;;;;;8.85;3.75;;;;;;;;;;5026219;28;20037;-63
2022/12/26 10:19:20;;;;;;;9.27;3.67;;;;;;;;;;5017674;28;20029;-63
2022/12/26 10:21:47;;;;;;;6.57;3.10;;;;;;;;;;5011485;28;20069;-63
2022/12/26 10:24:13;;;;;;;7.32;3.22;;;;;;;;;;5015898;28;20081;-63
2022/12/26 10:26:40;;;;;;;10.32;2.85;;;;;;;;;;5005823;28;20041;-63
2022/12/26 10:29:09;;;;;;;9.80;2.25;;;;;;;;;;5008057;28;20037;-63
2022/12/26 10:31:45;;;;;;;9.52;2.47;;;;;;;;;;5024787;28;20751;-63
2022/12/26 10:34:25;;;;;;;11.20;1.83;;;;;;;;;;5012343;28;20038;-63
2022/12/26 10:36:58;;;;;;;8.95;1.25;;;;;;;;;;5016398;28;20088;-63
2022/12/26 10:39:23;;;;;;;7.70;1.70;;;;;;;;;;5027410;28;20037;-63
2022/12/26 10:41:51;;;;;;;8.82;1.88;;;;;;;;;;5014090;28;20040;-63
2022/12/26 10:44:18;;;;;;;7.72;1.70;;;;;;;;;;5022225;28;20075;-63
2022/12/26 10:47:03;;;;;;;9.90;1.85;;;;;;;;;;5009354;28;20085;-64
2022/12/26 10:49:29;;;;;;;10.55;1.85;;;;;;;;;;5029648;28;20037;-64
2022/12/26 10:51:56;;;;;;;7.10;1.58;;;;;;;;;;5007541;28;20041;-63
2022/12/26 10:54:22;;;;;;;5.70;1.63;;;;;;;;;;5029729;28;20049;-63
2022/12/26 10:56:49;;;;;;;10.32;1.63;;;;;;;;;;5023592;28;20030;-63
2022/12/26 10:59:23;;;;;;;6.43;1.50;;;;;;;;;;5017338;28;20099;-64
2022/12/26 11:01:49;;;;;;;11.90;1.73;;;;;;;;;;5021197;28;20088;-63
2022/12/26 11:04:15;;;;;;;10.43;1.35;;;;;;;;;;5018570;28;20478;-64
2022/12/26 11:06:43;;;;;;;4.88;1.27;;;;;;;;;;5026459;28;20061;-65
2022/12/26 11:09:27;;;;;;;8.52;1.90;;;;;;;;;;5022029;28;20033;-64
2022/12/26 11:11:53;;;;;;;11.25;1.50;;;;;;;;;;5019847;28;20372;-64
2022/12/26 11:14:28;;;;;;;6.13;1.42;;;;;;;;;;5021065;28;20128;-64
2022/12/26 11:16:55;;;;;;;8.27;1.35;;;;;;;;;;5013859;28;20034;-63
2022/12/26 11:19:27;;;;;;;5.88;1.30;;;;;;;;;;5025692;28;20111;-65
2022/12/26 11:21:53;;;;;;;12.60;2.08;;;;;;;;;;5008652;28;20044;-64
2022/12/26 11:24:19;;;;;;;4.45;0.93;;;;;;;;;;5019245;28;20045;-65
2022/12/26 11:26:46;;;;;;;8.88;0.93;;;;;;;;;;5025395;28;20048;-65
2022/12/26 11:29:13;;;;;;;8.70;1.48;;;;;;;;;;5022767;28;20072;-65
2022/12/26 11:31:58;;;;;;;5.75;1.13;;;;;;;;;;5000759;28;20042;-64
2022/12/26 11:34:31;;;;;;;6.85;1.13;;;;;;;;;;5018980;28;20045;-64
2022/12/26 11:36:57;;;;;;;7.45;1.27;;;;;;;;;;5026635;28;20120;-64
2022/12/26 11:39:25;;;;;;;4.97;1.13;;;;;;;;;;5032496;28;20140;-64
2022/12/26 11:41:51;;;;;;;6.40;1.60;;;;;;;;;;5021273;28;20504;-64
2022/12/26 11:44:17;;;;;;;8.50;1.73;;;;;;;;;;5025657;28;20033;-64
2022/12/26 11:46:48;;;;;;;9.02;1.58;;;;;;;;;;5029958;28;20045;-64
2022/12/26 11:49:25;;;;;;;6.60;1.05;;;;;;;;;;5030641;28;20095;-64
2022/12/26 11:51:52;;;;;;;6.82;1.17;;;;;;;;;;5026981;28;20033;-64
2022/12/26 11:54:18;;;;;;;8.93;1.75;;;;;;;;;;5031798;28;20037;-64
2022/12/26 11:56:44;;;;;;;8.55;1.40;;;;;;;;;;5025732;28;20087;-64
2022/12/26 11:59:20;;;;;;;6.78;1.63;;;;;;;;;;5022222;28;20033;-64
2022/12/26 12:01:47;;;;;;;10.10;1.27;;;;;;;;;;5018521;28;20576;-64
2022/12/26 12:04:13;;;;;;;6.28;1.20;;;;;;;;;;5015449;28;20053;-64
2022/12/26 12:06:39;;;;;;;9.05;1.10;;;;;;;;;;5031606;28;20041;-64
2022/12/26 12:09:15;;;;;;;9.45;1.23;;;;;;;;;;5022446;28;20096;-64
2022/12/26 12:11:50;;;;;;;10.88;1.35;;;;;;;;;;5025020;28;20080;-64
2022/12/26 12:14:22;;;;;;;6.57;1.50;;;;;;;;;;5020517;28;20042;-64
2022/12/26 12:17:03;;;;;;;12.20;1.48;;;;;;;;;;5010090;28;20137;-63
2022/12/26 12:19:29;;;;;;;8.82;1.65;;;;;;;;;;5020159;28;20033;-63
2022/12/26 12:22:28;;;;;;;8.35;1.60;;;;;;;;;;5015654;28;20052;-63
2022/12/26 12:24:57;;;;;;;4.55;1.40;;;;;;;;;;4981087;28;20136;-63
2022/12/26 12:27:29;;;;;;;10.73;1.92;;;;;;;;;;5027721;28;20045;-63
2022/12/26 12:29:55;;;;;;;13.80;1.77;;;;;;;;;;5017558;28;20444;-63
2022/12/26 12:32:21;;;;;;;6.68;1.38;;;;;;;;;;5026495;28;20128;-64
2022/12/26 12:35:04;;;;;;;12.73;1.85;;;;;;;;;;5006201;28;20403;-63
2022/12/26 12:37:49;;;;;;;9.45;1.58;;;;;;;;;;5026035;28;20130;-64
2022/12/26 12:40:29;;;;;;;10.30;1.73;;;;;;;;;;5021507;28;20496;-64
2022/12/26 12:43:07;;;;;;;8.63;2.03;;;;;;;;;;5022970;28;20090;-64
2022/12/26 12:45:53;;;;;;;10.38;1.85;;;;;;;;;;5030702;28;20042;-64
2022/12/26 12:48:35;;;;;;;16.75;2.00;;;;;;;;;;5021305;28;20047;-64
2022/12/26 12:51:14;;;;;;;12.40;2.65;;;;;;;;;;5023259;28;20029;-64
2022/12/26 12:53:49;;;;;;;14.70;2.40;;;;;;;;;;5018556;28;20164;-64
2022/12/26 12:56:33;;;;;;;15.30;2.05;;;;;;;;;;5026389;28;20124;-64
2022/12/26 12:59:10;;;;;;;10.25;1.98;;;;;;;;;;5024936;28;20128;-64
2022/12/26 13:01:39;;;;;;;9.18;2.10;;;;;;;;;;5006246;28;20041;-64
2022/12/26 13:04:25;;;;;;;14.55;2.17;;;;;;;;;;5030561;28;20044;-64
2022/12/26 13:06:56;;;;;;;12.07;1.65;;;;;;;;;;5023388;28;20077;-64
2022/12/26 13:09:29;;;;;;;13.10;1.92;;;;;;;;;;5019113;28;20042;-64
2022/12/26 13:12:03;;;;;;;9.60;2.20;;;;;;;;;;5023511;28;20509;-65
2022/12/26 13:14:37;;;;;;;13.82;1.55;;;;;;;;;;5024123;28;20073;-64
2022/12/26 13:17:05;;;;;;;15.80;1.92;;;;;;;;;;5029427;28;20483;-64
2022/12/26 13:19:37;;;;;;;16.35;2.17;;;;;;;;;;5023902;28;20505;-64
2022/12/26 13:22:05;;;;;;;11.02;1.92;;;;;;;;;;5023070;28;22047;-64
2022/12/26 13:24:51;;;;;;;11.35;2.03;;;;;;;;;;5028842;28;20045;-64
2022/12/26 13:27:29;;;;;;;11.93;1.88;;;;;;;;;;5027971;28;20132;-64
2022/12/26 13:29:55;;;;;;;16.20;1.95;;;;;;;;;;5005407;28;20054;-64
2022/12/26 13:32:21;;;;;;;11.75;1.80;;;;;;;;;;5028474;28;20037;-64
2022/12/26 13:34:47;;;;;;;9.45;1.70;;;;;;;;;;5029074;28;20038;-64
2022/12/26 13:37:13;;;;;;;12.70;2.15;;;;;;;;;;5045724;22;20145;31
2022/12/26 13:39:39;;;;;;;10.07;1.88;;;;;;;;;;5003112;28;20129;-70
2022/12/26 13:44:53;;;;;;;11.48;1.70;;;;;;;;;;5008002;28;20049;-71
2022/12/26 13:47:33;;;;;;;9.65;2.20;;;;;;;;;;5010683;28;20046;-71
2022/12/26 13:50:19;;;;;;;13.38;1.88;;;;;;;;;;5009047;28;20492;-71
2022/12/26 13:52:46;;;;;;;10.55;1.80;;;;;;;;;;5006687;28;20092;-71
2022/12/26 13:55:12;;;;;;;11.05;2.03;;;;;;;;;;5009612;28;20052;-70
2022/12/26 13:57:41;;;;;;;10.30;1.80;;;;;;;;;;5009601;28;20038;-70
2022/12/26 14:00:10;;;;;;;9.80;1.73;;;;;;;;;;5004741;28;20127;-71
2022/12/26 14:02:55;;;;;;;10.63;2.08;;;;;;;;;;5008302;28;20623;-71
2022/12/26 14:05:21;;;;;;;9.40;1.70;;;;;;;;;;5006113;28;20049;-71
2022/12/26 14:07:57;;;;;;;12.65;2.03;;;;;;;;;;5011894;28;20045;-71
2022/12/26 14:10:42;;;;;;;9.55;1.77;;;;;;;;;;5008735;28;20050;-71
2022/12/26 14:13:41;;;;;;;13.73;1.88;;;;;;;;;;5011689;28;20038;-71
2022/12/26 14:16:27;;;;;;;10.68;2.13;;;;;;;;;;4982081;28;20065;-71
2022/12/26 14:19:01;;;;;;;16.10;2.03;;;;;;;;;;5002149;28;20042;-71
2022/12/26 14:21:35;;;;;;;12.10;1.92;;;;;;;;;;5010686;28;20484;-70
2022/12/26 14:24:04;;;;;;;9.13;2.08;;;;;;;;;;5010928;28;20045;-70
2022/12/26 14:26:49;;;;;;;8.55;1.42;;;;;;;;;;5008307;28;20033;-70
2022/12/26 14:29:24;;;;;;;9.48;1.65;;;;;;;;;;5008826;28;20046;-70
2022/12/26 14:31:56;;;;;;;9.23;1.77;;;;;;;;;;5011407;28;20034;-70
2022/12/26 14:34:37;;;;;;;11.00;2.00;;;;;;;;;;5008059;28;20145;-69
2022/12/26 14:37:14;;;;;;;11.77;2.05;;;;;;;;;;5005927;28;20551;-69
2022/12/26 14:39:58;;;;;;;13.43;1.88;;;;;;;;;;5006940;28;20042;-69
2022/12/26 14:45:33;;;;;;;11.52;2.28;;;;;;;;;;5003835;28;20053;-69
2022/12/26 14:47:59;;;;;;;13.60;2.38;;;;;;;;;;5002347;28;20084;-69
2022/12/26 14:50:31;;;;;;;10.98;1.85;;;;;;;;;;5002796;28;20046;-69
2022/12/26 14:53:16;;;;;;;13.27;1.75;;;;;;;;;;5008527;28;20049;-69
2022/12/26 14:55:52;;;;;;;11.80;1.50;;;;;;;;;;5008364;28;20062;-69
2022/12/26 14:58:30;;;;;;;15.15;2.78;;;;;;;;;;5005059;28;20038;-69
2022/12/26 15:01:16;;;;;;;13.10;2.00;;;;;;;;;;5008687;28;20034;-70
2022/12/26 15:04:01;;;;;;;10.70;1.73;;;;;;;;;;5009991;28;20057;-69
2022/12/26 15:06:46;;;;;;;13.50;2.15;;;;;;;;;;5006430;28;20037;-69
2022/12/26 15:09:23;;;;;;;14.02;2.28;;;;;;;;;;5010075;28;20053;-69
2022/12/26 15:12:08;;;;;;;12.98;2.28;;;;;;;;;;5008611;28;20067;-69
2022/12/26 15:14:52;;;;;;;10.45;2.20;;;;;;;;;;5006189;28;20046;-69
2022/12/26 15:17:34;;;;;;;12.18;2.58;;;;;;;;;;4999112;28;20096;-69
2022/12/26 15:20:18;;;;;;;9.57;1.40;;;;;;;;;;5008548;28;20058;-70
2022/12/26 15:23:03;;;;;;;9.32;1.92;;;;;;;;;;5020728;28;20042;-70
2022/12/26 15:25:29;;;;;;;10.52;1.90;;;;;;;;;;4999624;28;20646;-70
2022/12/26 15:27:58;;;;;;;8.95;1.88;;;;;;;;;;5002138;28;20041;-70
2022/12/26 15:30:43;;;;;;;9.15;1.75;;;;;;;;;;5010217;28;20046;-72
2022/12/26 15:33:17;;;;;;;12.20;4.85;;;;;;;;;;5001189;28;20033;-70
2022/12/26 15:36:15;;;;;;;14.55;7.15;;;;;;;;;;5004482;28;20168;-71
2022/12/26 15:38:48;;;;;;;34.33;18.30;;;;;;;;;;4978049;28;20069;-70
2022/12/26 15:41:29;;;;;;;16.80;3.63;;;;;;;;;;5008843;28;20049;-70
2022/12/26 15:43:55;;;;;;;;;;;;;;;;;;5008833;28;20125;-70
2022/12/26 15:46:23;;;;;;;10.43;3.63;;;;;;;;;;5010362;28;20009;-71
2022/12/26 15:49:08;;;;;;;15.75;3.25;;;;;;;;;;5015489;28;20062;-70
2022/12/26 15:51:57;;;;;;;14.32;8.52;;;;;;;;;;5008985;28;20076;-70
2022/12/26 15:54:28;;;;;;;35.80;25.48;;;;;;;;;;5009489;28;20054;-70
2022/12/26 15:57:11;;;;;;;13.05;4.07;;;;;;;;;;5007512;28;20037;-70
2022/12/26 15:59:43;;;;;;;19.60;10.30;;;;;;;;;;5008020;28;20049;-70
2022/12/26 16:02:14;;;;;;;19.77;9.93;;;;;;;;;;5003104;28;20037;-70
2022/12/26 16:04:44;;;;;;;15.52;6.45;;;;;;;;;;5004417;28;20037;-70
2022/12/26 16:07:28;;;;;;;14.60;3.20;;;;;;;;;;5003976;28;20484;-70
2022/12/26 16:09:55;;;;;;;9.73;3.20;;;;;;;;;;5001677;28;20041;-70
2022/12/26 16:12:23;;;;;;;17.30;10.18;;;;;;;;;;5003676;28;20123;-70
2022/12/26 16:14:50;;;;;;;9.38;2.50;;;;;;;;;;5000951;28;20132;-71
2022/12/26 16:17:18;;;;;;;20.73;14.77;;;;;;;;;;5004257;28;20121;-70
2022/12/26 16:19:46;;;;;;;11.65;3.75;;;;;;;;;;5006323;28;20541;-70
2022/12/26 16:25:02;;;;;;;12.88;4.80;;;;;;;;;;5007753;28;20069;-71
2022/12/26 16:27:29;;;;;;;11.35;1.85;;;;;;;;;;5007753;28;20042;-71
2022/12/26 16:30:01;;;;;;;12.77;3.00;;;;;;;;;;5007632;28;20457;-70
2022/12/26 16:32:33;;;;;;;11.15;2.17;;;;;;;;;;5008538;28;20049;-68
2022/12/26 16:34:59;;;;;;;11.00;2.38;;;;;;;;;;5005468;28;20038;-70
2022/12/26 16:37:26;;;;;;;8.57;2.17;;;;;;;;;;5003559;28;20087;-71
2022/12/26 16:40:11;;;;;;;44.35;25.30;;;;;;;;;;5008858;28;20065;-70
2022/12/26 16:42:37;;;;;;;16.27;7.43;;;;;;;;;;5007102;28;20507;-70
2022/12/26 16:45:03;;;;;;;16.50;4.72;;;;;;;;;;5007103;28;20069;-70
2022/12/26 16:47:30;;;;;;;14.00;3.17;;;;;;;;;;5008710;28;20038;-70
2022/12/26 16:49:57;;;;;;;14.57;3.65;;;;;;;;;;5006174;28;20060;-70
2022/12/26 16:52:32;;;;;;;12.35;2.58;;;;;;;;;;5007980;28;20042;-70
2022/12/26 16:55:18;;;;;;;11.88;3.58;;;;;;;;;;5002187;28;20485;-70
2022/12/26 16:57:44;;;;;;;12.60;3.30;;;;;;;;;;5001935;28;20042;-70
2022/12/26 17:00:16;;;;;;;11.52;2.53;;;;;;;;;;5006502;28;20026;-70
2022/12/26 17:02:44;;;;;;;12.13;2.42;;;;;;;;;;5001547;28;20045;-70
2022/12/26 17:05:29;;;;;;;11.45;4.18;;;;;;;;;;5007864;28;20404;-70
2022/12/26 17:07:56;;;;;;;11.00;3.00;;;;;;;;;;5005586;28;20042;-70